ダブリン の空港の天気 - METARとTAF

ダブリン空港 ( EIDW / DUB ) - アイルランド ダブリン
飛行場実況気象(Metar)
観測時間04/25 15:30 IST (04/25 14:30 UTC)
風向・風速西 10m/s 瞬間風速17m/s
視程10km以上
天気現象弱いしゅう雨
全天の4割程度の雲 雲底高度 550m
全天の4割程度の雲 雲底高度 790m
全天の8割程度の雲 雲底高度 7620m
気温10℃
湿度82%
気圧1008hPa
METAREIDW 251430Z 28019G33KT 9999 -SHRA SCT018CB SCT026 BKN250 10/07 Q1008 TEMPO 5000 SHRA
過去の天気等 Google飛行場航空写真 Wunderground天気予報

過去48時間のMETAR

飛行場予報(TAF)
発表時間: 4/25 15:22 IST (4/25 14:22 UTC)
予報対象時間: 25日15時 IST ~ 26日13時 IST
風向・風速西南西 9m/s
視程10km以上
少しの雲 雲底高度 550m
全天の4割程度の雲 雲底高度 760m
25日15時 IST ~ 25日18時 IST に一時的に
風向・風速西 13m/s 瞬間風速 20m/s
視程5,000m
天気現象しゅう雨あられ
全天の4割程度の雲 雲底高度 370m
全天の4割程度の積乱雲 雲底高度 550m
25日18時 IST ~ 25日22時 IST に一時的に
風向・風速西 12m/s 瞬間風速 17m/s
天気現象弱いしゅう雨
全天の4割程度の雲 雲底高度 370m
全天の4割程度の積乱雲 雲底高度 550m
25日18時 IST ~ 25日20時 IST に 確率 40% で一時的に
視程5,000m
天気現象しゅう雨あられ
25日22時 IST ~ 26日1時 IST に徐々に
風向・風速西 7m/s
26日7時 IST ~ 26日9時 IST に徐々に
風向・風速西 9m/s 瞬間風速 14m/s
26日11時 IST ~ 26日13時 IST に一時的に
天気現象弱いしゅう雨
全天の4割程度の積乱雲 雲底高度 550m
TAF AMD EIDW 251422Z 2514/2612 25018KT 9999 FEW018 SCT025
TEMPO 2514/2517 26025G39KT 5000 SHRAGS SCT012 SCT018CB
TEMPO 2517/2521 26023G34KT -SHRA SCT012 SCT018CB
PROB40 TEMPO 2517/2519 5000 SHRAGS
BECMG 2521/2524 26013KT
BECMG 2606/2608 26017G28KT
TEMPO 2610/2612 -SHRA SCT018CB